sensor_id;sensor_type;location;lat;lon;timestamp;temperature;humidity
5554;DHT22;2800;49.528;8.666;2022-11-20T00:01:14;2.90;99.90
5554;DHT22;2800;49.528;8.666;2022-11-20T00:03:40;2.90;99.90
5554;DHT22;2800;49.528;8.666;2022-11-20T00:06:12;2.90;99.90
5554;DHT22;2800;49.528;8.666;2022-11-20T00:08:39;2.90;99.90
5554;DHT22;2800;49.528;8.666;2022-11-20T00:11:06;3.00;99.90
5554;DHT22;2800;49.528;8.666;2022-11-20T00:13:32;3.00;99.90
5554;DHT22;2800;49.528;8.666;2022-11-20T00:15:59;3.10;99.90
5554;DHT22;2800;49.528;8.666;2022-11-20T00:18:26;3.10;99.90
5554;DHT22;2800;49.528;8.666;2022-11-20T00:20:51;3.00;99.90
5554;DHT22;2800;49.528;8.666;2022-11-20T00:23:17;3.10;99.90
5554;DHT22;2800;49.528;8.666;2022-11-20T00:25:42;3.10;99.90
5554;DHT22;2800;49.528;8.666;2022-11-20T00:28:08;3.10;99.90
5554;DHT22;2800;49.528;8.666;2022-11-20T00:30:34;3.10;99.90
5554;DHT22;2800;49.528;8.666;2022-11-20T00:32:59;3.20;99.90
5554;DHT22;2800;49.528;8.666;2022-11-20T00:35:25;3.30;99.90
5554;DHT22;2800;49.528;8.666;2022-11-20T00:37:50;3.20;99.90
5554;DHT22;2800;49.528;8.666;2022-11-20T00:40:16;3.20;99.90
5554;DHT22;2800;49.528;8.666;2022-11-20T00:42:41;3.00;99.90
5554;DHT22;2800;49.528;8.666;2022-11-20T00:45:07;3.10;99.90
5554;DHT22;2800;49.528;8.666;2022-11-20T00:47:32;3.20;99.90
5554;DHT22;2800;49.528;8.666;2022-11-20T00:49:58;3.00;99.90
5554;DHT22;2800;49.528;8.666;2022-11-20T00:52:23;3.00;99.90
5554;DHT22;2800;49.528;8.666;2022-11-20T00:54:49;3.10;99.90
5554;DHT22;2800;49.528;8.666;2022-11-20T00:57:14;3.10;99.90
5554;DHT22;2800;49.528;8.666;2022-11-20T00:59:40;3.10;99.90
5554;DHT22;2800;49.528;8.666;2022-11-20T01:02:05;3.10;99.90
5554;DHT22;2800;49.528;8.666;2022-11-20T01:04:31;3.00;99.90
5554;DHT22;2800;49.528;8.666;2022-11-20T01:06:56;3.00;99.90
5554;DHT22;2800;49.528;8.666;2022-11-20T01:09:22;2.90;99.90
5554;DHT22;2800;49.528;8.666;2022-11-20T01:11:47;2.90;99.90
5554;DHT22;2800;49.528;8.666;2022-11-20T01:14:15;2.90;99.90
5554;DHT22;2800;49.528;8.666;2022-11-20T01:16:47;2.90;99.90
5554;DHT22;2800;49.528;8.666;2022-11-20T01:19:16;2.90;99.90
5554;DHT22;2800;49.528;8.666;2022-11-20T01:21:43;3.00;99.90
5554;DHT22;2800;49.528;8.666;2022-11-20T01:24:14;3.00;99.90
5554;DHT22;2800;49.528;8.666;2022-11-20T01:26:41;3.00;99.90
5554;DHT22;2800;49.528;8.666;2022-11-20T01:29:16;3.10;99.90
5554;DHT22;2800;49.528;8.666;2022-11-20T01:31:42;3.10;99.90
5554;DHT22;2800;49.528;8.666;2022-11-20T01:34:14;3.10;99.90
5554;DHT22;2800;49.528;8.666;2022-11-20T01:36:40;3.20;99.90
5554;DHT22;2800;49.528;8.666;2022-11-20T01:39:17;3.20;99.90
5554;DHT22;2800;49.528;8.666;2022-11-20T01:41:44;3.20;99.90
5554;DHT22;2800;49.528;8.666;2022-11-20T01:47:50;3.20;99.90
5554;DHT22;2800;49.528;8.666;2022-11-20T01:50:23;3.30;99.90
5554;DHT22;2800;49.528;8.666;2022-11-20T01:52:56;3.20;99.90
5554;DHT22;2800;49.528;8.666;2022-11-20T01:55:28;3.20;99.90
5554;DHT22;2800;49.528;8.666;2022-11-20T01:57:56;3.10;99.90
5554;DHT22;2800;49.528;8.666;2022-11-20T02:00:21;3.10;99.90
5554;DHT22;2800;49.528;8.666;2022-11-20T02:03:09;3.10;99.90
5554;DHT22;2800;49.528;8.666;2022-11-20T02:06:01;3.00;99.90
5554;DHT22;2800;49.528;8.666;2022-11-20T02:08:28;3.00;99.90
5554;DHT22;2800;49.528;8.666;2022-11-20T02:10:54;3.00;99.90
5554;DHT22;2800;49.528;8.666;2022-11-20T02:13:19;2.90;99.90
5554;DHT22;2800;49.528;8.666;2022-11-20T02:16:04;2.90;99.90
5554;DHT22;2800;49.528;8.666;2022-11-20T02:18:30;2.90;99.90
5554;DHT22;2800;49.528;8.666;2022-11-20T02:21:04;3.00;99.90
5554;DHT22;2800;49.528;8.666;2022-11-20T02:26:16;2.90;99.90
5554;DHT22;2800;49.528;8.666;2022-11-20T02:28:42;2.90;99.90
5554;DHT22;2800;49.528;8.666;2022-11-20T02:31:08;2.90;99.90
5554;DHT22;2800;49.528;8.666;2022-11-20T02:33:33;3.00;99.90
5554;DHT22;2800;49.528;8.666;2022-11-20T02:35:59;3.10;99.90
5554;DHT22;2800;49.528;8.666;2022-11-20T02:38:24;3.10;99.90
5554;DHT22;2800;49.528;8.666;2022-11-20T02:40:50;3.00;99.90
5554;DHT22;2800;49.528;8.666;2022-11-20T02:43:16;3.10;99.90
5554;DHT22;2800;49.528;8.666;2022-11-20T02:45:41;3.00;99.90
5554;DHT22;2800;49.528;8.666;2022-11-20T02:48:07;3.00;99.90
5554;DHT22;2800;49.528;8.666;2022-11-20T02:50:33;3.00;99.90
5554;DHT22;2800;49.528;8.666;2022-11-20T02:52:58;3.00;99.90
5554;DHT22;2800;49.528;8.666;2022-11-20T02:55:24;3.00;99.90
5554;DHT22;2800;49.528;8.666;2022-11-20T02:57:49;3.00;99.90
5554;DHT22;2800;49.528;8.666;2022-11-20T03:00:15;3.10;99.90
5554;DHT22;2800;49.528;8.666;2022-11-20T03:02:41;3.10;99.90
5554;DHT22;2800;49.528;8.666;2022-11-20T03:05:07;3.10;99.90
5554;DHT22;2800;49.528;8.666;2022-11-20T03:07:33;3.10;99.90
5554;DHT22;2800;49.528;8.666;2022-11-20T03:09:59;3.10;99.90
5554;DHT22;2800;49.528;8.666;2022-11-20T03:12:24;3.30;99.90
5554;DHT22;2800;49.528;8.666;2022-11-20T03:14:50;3.40;99.90
5554;DHT22;2800;49.528;8.666;2022-11-20T03:17:16;3.30;99.90
5554;DHT22;2800;49.528;8.666;2022-11-20T03:19:41;3.20;99.90
5554;DHT22;2800;49.528;8.666;2022-11-20T03:22:07;3.30;99.90
5554;DHT22;2800;49.528;8.666;2022-11-20T03:24:32;3.40;99.90
5554;DHT22;2800;49.528;8.666;2022-11-20T03:26:58;3.40;99.90
5554;DHT22;2800;49.528;8.666;2022-11-20T03:29:23;3.40;99.90
5554;DHT22;2800;49.528;8.666;2022-11-20T03:31:49;3.20;99.90
5554;DHT22;2800;49.528;8.666;2022-11-20T03:34:14;3.30;99.90
5554;DHT22;2800;49.528;8.666;2022-11-20T03:36:43;3.40;99.90
5554;DHT22;2800;49.528;8.666;2022-11-20T03:39:09;3.40;99.90
5554;DHT22;2800;49.528;8.666;2022-11-20T03:41:40;3.30;99.90
5554;DHT22;2800;49.528;8.666;2022-11-20T03:44:08;3.30;99.90
5554;DHT22;2800;49.528;8.666;2022-11-20T03:46:34;3.30;99.90
5554;DHT22;2800;49.528;8.666;2022-11-20T03:49:00;3.30;99.90
5554;DHT22;2800;49.528;8.666;2022-11-20T03:51:28;3.40;99.90
5554;DHT22;2800;49.528;8.666;2022-11-20T03:53:55;3.40;99.90
5554;DHT22;2800;49.528;8.666;2022-11-20T03:56:24;3.50;99.90
5554;DHT22;2800;49.528;8.666;2022-11-20T03:58:50;3.50;99.90
5554;DHT22;2800;49.528;8.666;2022-11-20T04:01:18;3.50;99.90
5554;DHT22;2800;49.528;8.666;2022-11-20T04:03:44;3.50;99.90
5554;DHT22;2800;49.528;8.666;2022-11-20T04:06:15;3.60;99.90
5554;DHT22;2800;49.528;8.666;2022-11-20T04:08:41;3.50;99.90
5554;DHT22;2800;49.528;8.666;2022-11-20T04:11:18;3.50;99.90
5554;DHT22;2800;49.528;8.666;2022-11-20T04:13:49;3.50;99.90
5554;DHT22;2800;49.528;8.666;2022-11-20T04:16:16;3.60;99.90
5554;DHT22;2800;49.528;8.666;2022-11-20T04:18:42;3.60;99.90
5554;DHT22;2800;49.528;8.666;2022-11-20T04:21:08;3.60;99.90
5554;DHT22;2800;49.528;8.666;2022-11-20T04:23:34;3.70;99.90
5554;DHT22;2800;49.528;8.666;2022-11-20T04:26:08;3.60;99.90
5554;DHT22;2800;49.528;8.666;2022-11-20T04:28:34;3.60;99.90
5554;DHT22;2800;49.528;8.666;2022-11-20T04:31:08;3.60;99.90
5554;DHT22;2800;49.528;8.666;2022-11-20T04:33:34;3.60;99.90
5554;DHT22;2800;49.528;8.666;2022-11-20T04:38:38;3.60;99.90
5554;DHT22;2800;49.528;8.666;2022-11-20T04:41:08;3.60;99.90
5554;DHT22;2800;49.528;8.666;2022-11-20T04:43:35;3.70;99.90
5554;DHT22;2800;49.528;8.666;2022-11-20T04:46:01;3.70;99.90
5554;DHT22;2800;49.528;8.666;2022-11-20T04:48:27;3.70;99.90
5554;DHT22;2800;49.528;8.666;2022-11-20T04:50:54;3.60;99.90
5554;DHT22;2800;49.528;8.666;2022-11-20T04:53:20;3.50;99.90
5554;DHT22;2800;49.528;8.666;2022-11-20T04:55:46;3.50;99.90
5554;DHT22;2800;49.528;8.666;2022-11-20T04:58:12;3.50;99.90
5554;DHT22;2800;49.528;8.666;2022-11-20T05:00:38;3.50;99.90
5554;DHT22;2800;49.528;8.666;2022-11-20T05:03:04;3.50;99.90
5554;DHT22;2800;49.528;8.666;2022-11-20T05:05:29;3.50;99.90
5554;DHT22;2800;49.528;8.666;2022-11-20T05:07:58;3.60;99.90
5554;DHT22;2800;49.528;8.666;2022-11-20T05:10:25;3.60;99.90
5554;DHT22;2800;49.528;8.666;2022-11-20T05:12:50;3.50;99.90
5554;DHT22;2800;49.528;8.666;2022-11-20T05:15:16;3.50;99.90
5554;DHT22;2800;49.528;8.666;2022-11-20T05:17:47;3.40;99.90
5554;DHT22;2800;49.528;8.666;2022-11-20T05:20:13;3.50;99.90
5554;DHT22;2800;49.528;8.666;2022-11-20T05:22:38;3.60;99.90
5554;DHT22;2800;49.528;8.666;2022-11-20T05:25:04;3.60;99.90
5554;DHT22;2800;49.528;8.666;2022-11-20T05:27:30;3.80;99.90
5554;DHT22;2800;49.528;8.666;2022-11-20T05:29:55;3.90;99.90
5554;DHT22;2800;49.528;8.666;2022-11-20T05:32:21;3.90;99.90
5554;DHT22;2800;49.528;8.666;2022-11-20T05:34:46;3.90;99.90
5554;DHT22;2800;49.528;8.666;2022-11-20T05:37:12;4.00;99.90
5554;DHT22;2800;49.528;8.666;2022-11-20T05:39:37;3.90;99.90
5554;DHT22;2800;49.528;8.666;2022-11-20T05:42:03;3.80;99.90
5554;DHT22;2800;49.528;8.666;2022-11-20T05:44:47;3.90;99.90
5554;DHT22;2800;49.528;8.666;2022-11-20T05:47:12;3.90;99.90
5554;DHT22;2800;49.528;8.666;2022-11-20T05:49:38;4.00;99.90
5554;DHT22;2800;49.528;8.666;2022-11-20T05:52:03;4.00;99.90
5554;DHT22;2800;49.528;8.666;2022-11-20T05:54:29;4.10;99.90
5554;DHT22;2800;49.528;8.666;2022-11-20T05:56:54;4.10;99.90
5554;DHT22;2800;49.528;8.666;2022-11-20T05:59:20;4.10;99.90
5554;DHT22;2800;49.528;8.666;2022-11-20T06:01:45;4.10;99.90
5554;DHT22;2800;49.528;8.666;2022-11-20T06:04:11;4.10;99.90
5554;DHT22;2800;49.528;8.666;2022-11-20T06:06:36;4.00;99.90
5554;DHT22;2800;49.528;8.666;2022-11-20T06:09:02;4.10;99.90
5554;DHT22;2800;49.528;8.666;2022-11-20T06:11:27;4.10;99.90
5554;DHT22;2800;49.528;8.666;2022-11-20T06:13:53;4.10;99.90
5554;DHT22;2800;49.528;8.666;2022-11-20T06:16:19;4.10;99.90
5554;DHT22;2800;49.528;8.666;2022-11-20T06:18:45;4.10;99.90
5554;DHT22;2800;49.528;8.666;2022-11-20T06:21:17;4.00;99.90
5554;DHT22;2800;49.528;8.666;2022-11-20T06:23:43;4.00;99.90
5554;DHT22;2800;49.528;8.666;2022-11-20T06:26:19;4.00;99.90
5554;DHT22;2800;49.528;8.666;2022-11-20T06:28:45;4.00;99.90
5554;DHT22;2800;49.528;8.666;2022-11-20T06:31:13;4.10;99.90
5554;DHT22;2800;49.528;8.666;2022-11-20T06:33:39;4.10;99.90
5554;DHT22;2800;49.528;8.666;2022-11-20T06:36:05;4.10;99.90
5554;DHT22;2800;49.528;8.666;2022-11-20T06:38:31;4.20;99.90
5554;DHT22;2800;49.528;8.666;2022-11-20T06:40:57;4.20;99.90
5554;DHT22;2800;49.528;8.666;2022-11-20T06:43:23;4.20;99.90
5554;DHT22;2800;49.528;8.666;2022-11-20T06:45:57;4.20;99.90
5554;DHT22;2800;49.528;8.666;2022-11-20T06:48:23;4.20;99.90
5554;DHT22;2800;49.528;8.666;2022-11-20T06:50:49;4.20;99.90
5554;DHT22;2800;49.528;8.666;2022-11-20T06:53:15;4.10;99.90
5554;DHT22;2800;49.528;8.666;2022-11-20T06:55:47;4.10;99.90
5554;DHT22;2800;49.528;8.666;2022-11-20T06:58:14;4.10;99.90
5554;DHT22;2800;49.528;8.666;2022-11-20T07:00:40;4.10;99.90
5554;DHT22;2800;49.528;8.666;2022-11-20T07:03:07;4.20;99.90
5554;DHT22;2800;49.528;8.666;2022-11-20T07:05:33;4.30;99.90
5554;DHT22;2800;49.528;8.666;2022-11-20T07:07:59;4.30;99.90
5554;DHT22;2800;49.528;8.666;2022-11-20T07:10:25;4.40;99.90
5554;DHT22;2800;49.528;8.666;2022-11-20T07:12:52;4.50;99.90
5554;DHT22;2800;49.528;8.666;2022-11-20T07:15:19;4.50;99.90
5554;DHT22;2800;49.528;8.666;2022-11-20T07:17:45;4.40;99.90
5554;DHT22;2800;49.528;8.666;2022-11-20T07:20:11;4.40;99.90
5554;DHT22;2800;49.528;8.666;2022-11-20T07:22:37;4.40;99.90
5554;DHT22;2800;49.528;8.666;2022-11-20T07:25:03;4.40;99.90
5554;DHT22;2800;49.528;8.666;2022-11-20T07:27:29;4.40;99.90
5554;DHT22;2800;49.528;8.666;2022-11-20T07:29:55;4.40;99.90
5554;DHT22;2800;49.528;8.666;2022-11-20T07:32:21;4.40;99.90
5554;DHT22;2800;49.528;8.666;2022-11-20T07:34:47;4.40;99.90
5554;DHT22;2800;49.528;8.666;2022-11-20T07:37:13;4.40;99.90
5554;DHT22;2800;49.528;8.666;2022-11-20T07:39:38;4.40;99.90
5554;DHT22;2800;49.528;8.666;2022-11-20T07:42:06;4.40;99.90
5554;DHT22;2800;49.528;8.666;2022-11-20T07:44:31;4.40;99.90
5554;DHT22;2800;49.528;8.666;2022-11-20T07:46:57;4.40;99.90
5554;DHT22;2800;49.528;8.666;2022-11-20T07:49:22;4.40;99.90
5554;DHT22;2800;49.528;8.666;2022-11-20T07:51:50;4.40;99.90
5554;DHT22;2800;49.528;8.666;2022-11-20T07:54:16;4.40;99.90
5554;DHT22;2800;49.528;8.666;2022-11-20T07:56:42;4.50;99.90
5554;DHT22;2800;49.528;8.666;2022-11-20T07:59:07;4.50;99.90
5554;DHT22;2800;49.528;8.666;2022-11-20T08:01:33;4.60;99.90
5554;DHT22;2800;49.528;8.666;2022-11-20T08:03:58;4.60;99.90
5554;DHT22;2800;49.528;8.666;2022-11-20T08:06:24;4.70;99.90
5554;DHT22;2800;49.528;8.666;2022-11-20T08:08:50;4.80;99.90
5554;DHT22;2800;49.528;8.666;2022-11-20T08:11:16;4.90;99.90
5554;DHT22;2800;49.528;8.666;2022-11-20T08:14:00;4.90;99.90
5554;DHT22;2800;49.528;8.666;2022-11-20T08:16:45;5.10;99.90
5554;DHT22;2800;49.528;8.666;2022-11-20T08:19:12;5.20;99.90
5554;DHT22;2800;49.528;8.666;2022-11-20T08:21:38;5.20;99.90
5554;DHT22;2800;49.528;8.666;2022-11-20T08:24:04;5.20;99.90
5554;DHT22;2800;49.528;8.666;2022-11-20T08:26:29;5.30;99.90
5554;DHT22;2800;49.528;8.666;2022-11-20T08:28:56;5.40;99.90
5554;DHT22;2800;49.528;8.666;2022-11-20T08:31:22;5.40;99.90
5554;DHT22;2800;49.528;8.666;2022-11-20T08:33:48;5.30;99.90
5554;DHT22;2800;49.528;8.666;2022-11-20T08:36:14;5.30;99.90
5554;DHT22;2800;49.528;8.666;2022-11-20T08:38:40;5.30;99.90
5554;DHT22;2800;49.528;8.666;2022-11-20T08:41:05;5.30;99.90
5554;DHT22;2800;49.528;8.666;2022-11-20T08:44:04;5.30;99.90
5554;DHT22;2800;49.528;8.666;2022-11-20T08:46:40;5.30;99.90
5554;DHT22;2800;49.528;8.666;2022-11-20T08:49:11;5.20;99.90
5554;DHT22;2800;49.528;8.666;2022-11-20T08:51:37;5.10;99.90
5554;DHT22;2800;49.528;8.666;2022-11-20T08:54:04;5.10;99.90
5554;DHT22;2800;49.528;8.666;2022-11-20T08:56:30;5.10;99.90
5554;DHT22;2800;49.528;8.666;2022-11-20T08:58:56;5.00;99.90
5554;DHT22;2800;49.528;8.666;2022-11-20T09:01:22;4.90;99.90
5554;DHT22;2800;49.528;8.666;2022-11-20T09:03:48;4.90;99.90
5554;DHT22;2800;49.528;8.666;2022-11-20T09:06:15;4.90;99.90
5554;DHT22;2800;49.528;8.666;2022-11-20T09:08:41;4.80;99.90
5554;DHT22;2800;49.528;8.666;2022-11-20T09:11:07;4.80;99.90
5554;DHT22;2800;49.528;8.666;2022-11-20T09:13:34;4.70;99.90
5554;DHT22;2800;49.528;8.666;2022-11-20T09:16:03;4.70;99.90
5554;DHT22;2800;49.528;8.666;2022-11-20T09:18:30;4.70;99.90
5554;DHT22;2800;49.528;8.666;2022-11-20T09:20:59;4.60;99.90
5554;DHT22;2800;49.528;8.666;2022-11-20T09:23:26;4.60;99.90
5554;DHT22;2800;49.528;8.666;2022-11-20T09:25:52;4.60;99.90
5554;DHT22;2800;49.528;8.666;2022-11-20T09:28:20;4.70;99.90
5554;DHT22;2800;49.528;8.666;2022-11-20T09:30:46;4.70;99.90
5554;DHT22;2800;49.528;8.666;2022-11-20T09:33:12;4.60;99.90
5554;DHT22;2800;49.528;8.666;2022-11-20T09:35:38;4.70;99.90
5554;DHT22;2800;49.528;8.666;2022-11-20T09:38:06;4.70;99.90
5554;DHT22;2800;49.528;8.666;2022-11-20T09:40:34;4.70;99.90
5554;DHT22;2800;49.528;8.666;2022-11-20T09:48:54;4.70;99.90
5554;DHT22;2800;49.528;8.666;2022-11-20T09:53:55;4.70;99.90
5554;DHT22;2800;49.528;8.666;2022-11-20T09:56:23;4.70;99.90
5554;DHT22;2800;49.528;8.666;2022-11-20T09:58:51;4.80;99.90
5554;DHT22;2800;49.528;8.666;2022-11-20T10:01:18;4.70;99.90
5554;DHT22;2800;49.528;8.666;2022-11-20T10:06:17;4.70;99.90
5554;DHT22;2800;49.528;8.666;2022-11-20T10:09:27;4.70;99.90
5554;DHT22;2800;49.528;8.666;2022-11-20T10:25:16;4.80;99.90
5554;DHT22;2800;49.528;8.666;2022-11-20T10:31:01;4.90;99.90
5554;DHT22;2800;49.528;8.666;2022-11-20T10:33:32;4.90;99.90
5554;DHT22;2800;49.528;8.666;2022-11-20T10:39:06;4.90;99.90
5554;DHT22;2800;49.528;8.666;2022-11-20T10:41:40;4.90;99.90
5554;DHT22;2800;49.528;8.666;2022-11-20T10:44:17;5.00;99.90
5554;DHT22;2800;49.528;8.666;2022-11-20T10:47:05;5.00;99.90
5554;DHT22;2800;49.528;8.666;2022-11-20T10:49:32;5.00;99.90
5554;DHT22;2800;49.528;8.666;2022-11-20T10:58:00;5.00;99.90
5554;DHT22;2800;49.528;8.666;2022-11-20T11:00:30;5.10;99.90
5554;DHT22;2800;49.528;8.666;2022-11-20T11:02:55;5.00;99.90
5554;DHT22;2800;49.528;8.666;2022-11-20T11:05:40;5.00;99.90
5554;DHT22;2800;49.528;8.666;2022-11-20T11:08:16;5.10;99.90
5554;DHT22;2800;49.528;8.666;2022-11-20T11:10:54;5.10;99.90
5554;DHT22;2800;49.528;8.666;2022-11-20T11:13:27;5.10;99.90
5554;DHT22;2800;49.528;8.666;2022-11-20T11:15:53;5.20;99.90
5554;DHT22;2800;49.528;8.666;2022-11-20T11:18:28;5.20;99.90
5554;DHT22;2800;49.528;8.666;2022-11-20T11:20:56;5.20;99.90
5554;DHT22;2800;49.528;8.666;2022-11-20T11:23:32;5.30;99.90
5554;DHT22;2800;49.528;8.666;2022-11-20T11:26:00;5.30;99.90
5554;DHT22;2800;49.528;8.666;2022-11-20T11:28:27;5.40;99.90
5554;DHT22;2800;49.528;8.666;2022-11-20T11:30:53;5.40;99.90
5554;DHT22;2800;49.528;8.666;2022-11-20T11:36:03;5.60;99.90
5554;DHT22;2800;49.528;8.666;2022-11-20T11:38:35;5.80;99.90
5554;DHT22;2800;49.528;8.666;2022-11-20T11:41:02;5.70;99.90
5554;DHT22;2800;49.528;8.666;2022-11-20T11:43:35;5.80;99.90
5554;DHT22;2800;49.528;8.666;2022-11-20T11:54:24;6.00;99.90
5554;DHT22;2800;49.528;8.666;2022-11-20T11:56:51;6.00;99.90
5554;DHT22;2800;49.528;8.666;2022-11-20T11:59:28;5.90;99.90
5554;DHT22;2800;49.528;8.666;2022-11-20T12:02:02;5.90;99.90
5554;DHT22;2800;49.528;8.666;2022-11-20T12:04:46;6.00;99.90
5554;DHT22;2800;49.528;8.666;2022-11-20T12:07:38;6.00;99.90
5554;DHT22;2800;49.528;8.666;2022-11-20T12:10:08;6.20;99.90
5554;DHT22;2800;49.528;8.666;2022-11-20T12:12:40;6.20;99.90
5554;DHT22;2800;49.528;8.666;2022-11-20T12:15:15;6.30;99.90
5554;DHT22;2800;49.528;8.666;2022-11-20T12:17:41;6.30;99.90
5554;DHT22;2800;49.528;8.666;2022-11-20T12:20:15;6.40;99.90
5554;DHT22;2800;49.528;8.666;2022-11-20T12:22:55;6.50;99.90
5554;DHT22;2800;49.528;8.666;2022-11-20T12:25:29;6.60;99.90
5554;DHT22;2800;49.528;8.666;2022-11-20T12:30:32;6.70;99.90
5554;DHT22;2800;49.528;8.666;2022-11-20T12:36:13;6.80;99.90
5554;DHT22;2800;49.528;8.666;2022-11-20T12:48:06;6.80;99.90
5554;DHT22;2800;49.528;8.666;2022-11-20T12:54:06;6.80;99.90
5554;DHT22;2800;49.528;8.666;2022-11-20T12:57:07;6.80;99.90
5554;DHT22;2800;49.528;8.666;2022-11-20T13:07:22;6.90;99.90
5554;DHT22;2800;49.528;8.666;2022-11-20T13:09:50;6.80;99.90
5554;DHT22;2800;49.528;8.666;2022-11-20T13:12:41;6.80;99.90
5554;DHT22;2800;49.528;8.666;2022-11-20T13:17:57;6.70;99.90
5554;DHT22;2800;49.528;8.666;2022-11-20T13:20:24;6.80;99.90
5554;DHT22;2800;49.528;8.666;2022-11-20T13:22:54;6.80;99.90
5554;DHT22;2800;49.528;8.666;2022-11-20T13:25:31;6.90;99.90
5554;DHT22;2800;49.528;8.666;2022-11-20T13:28:00;6.90;99.90
5554;DHT22;2800;49.528;8.666;2022-11-20T13:30:28;6.90;99.90
5554;DHT22;2800;49.528;8.666;2022-11-20T13:32:56;7.00;99.90
5554;DHT22;2800;49.528;8.666;2022-11-20T13:38:08;7.10;99.90
5554;DHT22;2800;49.528;8.666;2022-11-20T13:40:37;7.10;99.90
5554;DHT22;2800;49.528;8.666;2022-11-20T13:45:59;7.20;99.90
5554;DHT22;2800;49.528;8.666;2022-11-20T13:48:34;7.20;99.90
5554;DHT22;2800;49.528;8.666;2022-11-20T13:57:13;7.50;99.90
5554;DHT22;2800;49.528;8.666;2022-11-20T14:02:26;7.60;99.90
5554;DHT22;2800;49.528;8.666;2022-11-20T14:04:54;7.80;99.90
5554;DHT22;2800;49.528;8.666;2022-11-20T14:07:25;8.00;99.90
5554;DHT22;2800;49.528;8.666;2022-11-20T14:09:54;8.00;99.90
5554;DHT22;2800;49.528;8.666;2022-11-20T14:12:29;8.10;99.90
5554;DHT22;2800;49.528;8.666;2022-11-20T14:14:56;8.50;99.90
5554;DHT22;2800;49.528;8.666;2022-11-20T14:19:57;8.50;99.90
5554;DHT22;2800;49.528;8.666;2022-11-20T14:22:25;8.50;99.90
5554;DHT22;2800;49.528;8.666;2022-11-20T14:27:39;8.50;99.90
5554;DHT22;2800;49.528;8.666;2022-11-20T14:30:13;8.50;99.90
5554;DHT22;2800;49.528;8.666;2022-11-20T14:32:41;8.50;99.90
5554;DHT22;2800;49.528;8.666;2022-11-20T14:35:09;8.50;99.90
5554;DHT22;2800;49.528;8.666;2022-11-20T14:37:37;8.50;99.90
5554;DHT22;2800;49.528;8.666;2022-11-20T14:40:20;8.40;99.90
5554;DHT22;2800;49.528;8.666;2022-11-20T14:42:46;8.20;99.90
5554;DHT22;2800;49.528;8.666;2022-11-20T14:45:12;8.10;99.90
5554;DHT22;2800;49.528;8.666;2022-11-20T14:47:38;8.00;99.90
5554;DHT22;2800;49.528;8.666;2022-11-20T14:50:24;7.90;99.90
5554;DHT22;2800;49.528;8.666;2022-11-20T14:52:59;7.90;99.90
5554;DHT22;2800;49.528;8.666;2022-11-20T14:55:36;7.80;99.90
5554;DHT22;2800;49.528;8.666;2022-11-20T14:58:27;7.80;99.90
5554;DHT22;2800;49.528;8.666;2022-11-20T15:00:55;7.60;99.90
5554;DHT22;2800;49.528;8.666;2022-11-20T15:03:21;7.50;99.90
5554;DHT22;2800;49.528;8.666;2022-11-20T15:05:49;7.50;99.90
5554;DHT22;2800;49.528;8.666;2022-11-20T15:08:15;7.40;99.90
5554;DHT22;2800;49.528;8.666;2022-11-20T15:10:49;7.40;99.90
5554;DHT22;2800;49.528;8.666;2022-11-20T15:13:29;7.30;99.90
5554;DHT22;2800;49.528;8.666;2022-11-20T15:15:56;7.30;99.90
5554;DHT22;2800;49.528;8.666;2022-11-20T15:18:28;7.30;99.90
5554;DHT22;2800;49.528;8.666;2022-11-20T15:20:56;7.20;99.90
5554;DHT22;2800;49.528;8.666;2022-11-20T15:23:26;7.10;99.90
5554;DHT22;2800;49.528;8.666;2022-11-20T15:25:52;7.00;99.90
5554;DHT22;2800;49.528;8.666;2022-11-20T15:28:23;6.90;99.90
5554;DHT22;2800;49.528;8.666;2022-11-20T15:30:52;6.90;99.90
5554;DHT22;2800;49.528;8.666;2022-11-20T15:33:18;6.90;99.90
5554;DHT22;2800;49.528;8.666;2022-11-20T15:35:44;6.80;99.90
5554;DHT22;2800;49.528;8.666;2022-11-20T15:38:10;6.80;99.90
5554;DHT22;2800;49.528;8.666;2022-11-20T15:40:35;6.70;99.90
5554;DHT22;2800;49.528;8.666;2022-11-20T15:43:01;6.70;99.90
5554;DHT22;2800;49.528;8.666;2022-11-20T15:47:59;6.60;99.90
5554;DHT22;2800;49.528;8.666;2022-11-20T15:50:38;6.60;99.90
5554;DHT22;2800;49.528;8.666;2022-11-20T15:53:04;6.50;99.90
5554;DHT22;2800;49.528;8.666;2022-11-20T15:55:30;6.50;99.90
5554;DHT22;2800;49.528;8.666;2022-11-20T15:57:56;6.40;99.90
5554;DHT22;2800;49.528;8.666;2022-11-20T16:00:22;6.40;99.90
5554;DHT22;2800;49.528;8.666;2022-11-20T16:02:47;6.30;99.90
5554;DHT22;2800;49.528;8.666;2022-11-20T16:05:13;6.30;99.90
5554;DHT22;2800;49.528;8.666;2022-11-20T16:07:40;6.30;99.90
5554;DHT22;2800;49.528;8.666;2022-11-20T16:10:06;6.30;99.90
5554;DHT22;2800;49.528;8.666;2022-11-20T16:12:31;6.30;99.90
5554;DHT22;2800;49.528;8.666;2022-11-20T16:15:15;6.40;99.90
5554;DHT22;2800;49.528;8.666;2022-11-20T16:17:59;6.50;99.90
5554;DHT22;2800;49.528;8.666;2022-11-20T16:20:25;6.60;99.90
5554;DHT22;2800;49.528;8.666;2022-11-20T16:22:50;6.60;99.90
5554;DHT22;2800;49.528;8.666;2022-11-20T16:25:16;6.60;99.90
5554;DHT22;2800;49.528;8.666;2022-11-20T16:27:41;6.80;99.90
5554;DHT22;2800;49.528;8.666;2022-11-20T16:30:07;6.90;99.90
5554;DHT22;2800;49.528;8.666;2022-11-20T16:32:33;6.90;99.90
5554;DHT22;2800;49.528;8.666;2022-11-20T16:34:59;7.00;99.90
5554;DHT22;2800;49.528;8.666;2022-11-20T16:37:24;7.00;99.90
5554;DHT22;2800;49.528;8.666;2022-11-20T16:39:50;7.00;99.90
5554;DHT22;2800;49.528;8.666;2022-11-20T16:42:15;7.00;99.90
5554;DHT22;2800;49.528;8.666;2022-11-20T16:44:41;7.00;99.90
5554;DHT22;2800;49.528;8.666;2022-11-20T16:47:06;7.00;99.90
5554;DHT22;2800;49.528;8.666;2022-11-20T16:49:32;7.00;99.90
5554;DHT22;2800;49.528;8.666;2022-11-20T16:51:58;7.10;99.90
5554;DHT22;2800;49.528;8.666;2022-11-20T16:54:24;7.00;99.90
5554;DHT22;2800;49.528;8.666;2022-11-20T16:56:49;7.00;99.90
5554;DHT22;2800;49.528;8.666;2022-11-20T16:59:17;7.10;99.90
5554;DHT22;2800;49.528;8.666;2022-11-20T17:01:43;7.00;99.90
5554;DHT22;2800;49.528;8.666;2022-11-20T17:04:08;7.10;99.90
5554;DHT22;2800;49.528;8.666;2022-11-20T17:06:36;7.00;99.90
5554;DHT22;2800;49.528;8.666;2022-11-20T17:09:03;7.00;99.90
5554;DHT22;2800;49.528;8.666;2022-11-20T17:11:29;7.00;99.90
5554;DHT22;2800;49.528;8.666;2022-11-20T17:13:56;7.00;99.90
5554;DHT22;2800;49.528;8.666;2022-11-20T17:16:25;7.00;99.90
5554;DHT22;2800;49.528;8.666;2022-11-20T17:18:52;7.00;99.90
5554;DHT22;2800;49.528;8.666;2022-11-20T17:21:18;7.00;99.90
5554;DHT22;2800;49.528;8.666;2022-11-20T17:23:44;7.00;99.90
5554;DHT22;2800;49.528;8.666;2022-11-20T17:26:19;6.90;99.90
5554;DHT22;2800;49.528;8.666;2022-11-20T17:28:51;6.80;99.90
5554;DHT22;2800;49.528;8.666;2022-11-20T17:31:17;6.80;99.90
5554;DHT22;2800;49.528;8.666;2022-11-20T17:33:44;6.70;99.90
5554;DHT22;2800;49.528;8.666;2022-11-20T17:36:15;6.70;99.90
5554;DHT22;2800;49.528;8.666;2022-11-20T17:38:41;6.60;99.90
5554;DHT22;2800;49.528;8.666;2022-11-20T17:41:10;6.60;99.90
5554;DHT22;2800;49.528;8.666;2022-11-20T17:43:36;6.60;99.90
5554;DHT22;2800;49.528;8.666;2022-11-20T17:46:13;6.60;99.90
5554;DHT22;2800;49.528;8.666;2022-11-20T17:48:40;6.60;99.90
5554;DHT22;2800;49.528;8.666;2022-11-20T17:51:19;6.60;99.90
5554;DHT22;2800;49.528;8.666;2022-11-20T17:53:47;6.60;99.90
5554;DHT22;2800;49.528;8.666;2022-11-20T17:56:13;6.60;99.90
5554;DHT22;2800;49.528;8.666;2022-11-20T17:58:58;6.60;99.90
5554;DHT22;2800;49.528;8.666;2022-11-20T18:01:23;6.60;99.90
5554;DHT22;2800;49.528;8.666;2022-11-20T18:03:49;6.60;99.90
5554;DHT22;2800;49.528;8.666;2022-11-20T18:06:20;6.60;99.90
5554;DHT22;2800;49.528;8.666;2022-11-20T18:08:46;6.60;99.90
5554;DHT22;2800;49.528;8.666;2022-11-20T18:11:20;6.50;99.90
5554;DHT22;2800;49.528;8.666;2022-11-20T18:13:51;6.50;99.90